sensor_id;sensor_type;location;lat;lon;timestamp;P1;durP1;ratioP1;P2;durP2;ratioP2
41059;SDS011;26811;53.160;8.202;2022-07-11T00:02:21;13.53;;;4.87;;
41059;SDS011;26811;53.160;8.202;2022-07-11T00:07:21;8.02;;;4.50;;
41059;SDS011;26811;53.160;8.202;2022-07-11T00:12:22;11.80;;;5.28;;
41059;SDS011;26811;53.160;8.202;2022-07-11T00:17:26;10.88;;;5.10;;
41059;SDS011;26811;53.160;8.202;2022-07-11T00:22:27;10.55;;;4.25;;
41059;SDS011;26811;53.160;8.202;2022-07-11T00:27:27;13.00;;;4.50;;
41059;SDS011;26811;53.160;8.202;2022-07-11T00:32:28;12.57;;;4.95;;
41059;SDS011;26811;53.160;8.202;2022-07-11T00:37:28;9.43;;;3.92;;
41059;SDS011;26811;53.160;8.202;2022-07-11T00:42:29;9.20;;;4.03;;
41059;SDS011;26811;53.160;8.202;2022-07-11T00:47:29;15.57;;;4.32;;
41059;SDS011;26811;53.160;8.202;2022-07-11T00:52:30;7.07;;;3.70;;
41059;SDS011;26811;53.160;8.202;2022-07-11T00:57:30;10.80;;;3.70;;
41059;SDS011;26811;53.160;8.202;2022-07-11T01:02:33;10.50;;;4.20;;
41059;SDS011;26811;53.160;8.202;2022-07-11T01:07:33;12.07;;;4.30;;
41059;SDS011;26811;53.160;8.202;2022-07-11T01:12:34;12.43;;;4.20;;
41059;SDS011;26811;53.160;8.202;2022-07-11T01:17:35;10.70;;;4.57;;
41059;SDS011;26811;53.160;8.202;2022-07-11T01:22:36;7.93;;;4.05;;
41059;SDS011;26811;53.160;8.202;2022-07-11T01:27:41;10.65;;;4.63;;
41059;SDS011;26811;53.160;8.202;2022-07-11T01:32:41;7.68;;;3.88;;
41059;SDS011;26811;53.160;8.202;2022-07-11T01:37:42;7.03;;;4.20;;
41059;SDS011;26811;53.160;8.202;2022-07-11T01:42:43;7.50;;;3.58;;
41059;SDS011;26811;53.160;8.202;2022-07-11T01:47:43;11.65;;;4.28;;
41059;SDS011;26811;53.160;8.202;2022-07-11T01:52:44;9.23;;;4.10;;
41059;SDS011;26811;53.160;8.202;2022-07-11T01:57:44;13.18;;;4.43;;
41059;SDS011;26811;53.160;8.202;2022-07-11T02:02:45;6.38;;;3.55;;
41059;SDS011;26811;53.160;8.202;2022-07-11T02:07:45;6.80;;;3.97;;
41059;SDS011;26811;53.160;8.202;2022-07-11T02:13:04;7.78;;;4.03;;
41059;SDS011;26811;53.160;8.202;2022-07-11T02:18:05;5.68;;;4.30;;
41059;SDS011;26811;53.160;8.202;2022-07-11T02:23:06;10.70;;;4.70;;
41059;SDS011;26811;53.160;8.202;2022-07-11T02:28:08;10.48;;;4.38;;
41059;SDS011;26811;53.160;8.202;2022-07-11T02:33:09;10.23;;;5.20;;
41059;SDS011;26811;53.160;8.202;2022-07-11T02:38:14;9.00;;;4.47;;
41059;SDS011;26811;53.160;8.202;2022-07-11T02:43:14;8.20;;;4.70;;
41059;SDS011;26811;53.160;8.202;2022-07-11T02:48:15;10.00;;;4.82;;
41059;SDS011;26811;53.160;8.202;2022-07-11T02:53:16;11.88;;;5.03;;
41059;SDS011;26811;53.160;8.202;2022-07-11T02:58:16;9.60;;;5.05;;
41059;SDS011;26811;53.160;8.202;2022-07-11T03:03:17;6.75;;;4.72;;
41059;SDS011;26811;53.160;8.202;2022-07-11T03:08:17;14.15;;;5.43;;
41059;SDS011;26811;53.160;8.202;2022-07-11T03:13:18;11.15;;;5.10;;
41059;SDS011;26811;53.160;8.202;2022-07-11T03:18:18;11.57;;;5.35;;
41059;SDS011;26811;53.160;8.202;2022-07-11T03:23:19;11.07;;;5.47;;
41059;SDS011;26811;53.160;8.202;2022-07-11T03:28:19;9.25;;;5.05;;
41059;SDS011;26811;53.160;8.202;2022-07-11T03:33:20;10.90;;;5.07;;
41059;SDS011;26811;53.160;8.202;2022-07-11T03:38:21;8.23;;;4.97;;
41059;SDS011;26811;53.160;8.202;2022-07-11T03:43:22;10.55;;;4.72;;
41059;SDS011;26811;53.160;8.202;2022-07-11T03:48:23;10.13;;;4.72;;
41059;SDS011;26811;53.160;8.202;2022-07-11T03:53:23;10.85;;;4.53;;
41059;SDS011;26811;53.160;8.202;2022-07-11T03:58:24;11.00;;;5.13;;
41059;SDS011;26811;53.160;8.202;2022-07-11T04:03:24;9.40;;;5.38;;
41059;SDS011;26811;53.160;8.202;2022-07-11T04:08:25;11.65;;;5.03;;
41059;SDS011;26811;53.160;8.202;2022-07-11T04:13:26;9.45;;;4.65;;
41059;SDS011;26811;53.160;8.202;2022-07-11T04:18:27;10.50;;;4.95;;
41059;SDS011;26811;53.160;8.202;2022-07-11T04:23:27;6.50;;;4.32;;
41059;SDS011;26811;53.160;8.202;2022-07-11T04:28:28;9.27;;;4.20;;
41059;SDS011;26811;53.160;8.202;2022-07-11T04:33:28;8.20;;;4.10;;
41059;SDS011;26811;53.160;8.202;2022-07-11T04:38:29;7.85;;;4.28;;
41059;SDS011;26811;53.160;8.202;2022-07-11T04:43:29;8.82;;;4.15;;
41059;SDS011;26811;53.160;8.202;2022-07-11T04:48:31;8.40;;;4.30;;
41059;SDS011;26811;53.160;8.202;2022-07-11T04:53:31;10.13;;;4.55;;
41059;SDS011;26811;53.160;8.202;2022-07-11T04:58:33;6.95;;;4.35;;
41059;SDS011;26811;53.160;8.202;2022-07-11T05:03:33;7.63;;;4.03;;
41059;SDS011;26811;53.160;8.202;2022-07-11T05:08:34;5.07;;;3.92;;
41059;SDS011;26811;53.160;8.202;2022-07-11T05:13:36;9.60;;;4.30;;
41059;SDS011;26811;53.160;8.202;2022-07-11T05:18:37;4.50;;;3.13;;
41059;SDS011;26811;53.160;8.202;2022-07-11T05:23:38;4.05;;;3.40;;
41059;SDS011;26811;53.160;8.202;2022-07-11T05:28:39;8.65;;;4.30;;
41059;SDS011;26811;53.160;8.202;2022-07-11T05:33:39;9.25;;;4.13;;
41059;SDS011;26811;53.160;8.202;2022-07-11T05:38:40;9.02;;;3.67;;
41059;SDS011;26811;53.160;8.202;2022-07-11T05:43:40;4.80;;;3.28;;
41059;SDS011;26811;53.160;8.202;2022-07-11T05:48:41;4.20;;;3.55;;
41059;SDS011;26811;53.160;8.202;2022-07-11T05:53:42;9.32;;;3.67;;
41059;SDS011;26811;53.160;8.202;2022-07-11T05:58:42;6.80;;;3.35;;
41059;SDS011;26811;53.160;8.202;2022-07-11T06:03:43;9.07;;;3.20;;
41059;SDS011;26811;53.160;8.202;2022-07-11T06:08:44;3.88;;;2.95;;
41059;SDS011;26811;53.160;8.202;2022-07-11T06:13:44;6.65;;;2.75;;
41059;SDS011;26811;53.160;8.202;2022-07-11T06:18:45;8.05;;;2.42;;
41059;SDS011;26811;53.160;8.202;2022-07-11T06:23:46;8.18;;;3.00;;
41059;SDS011;26811;53.160;8.202;2022-07-11T06:28:46;3.30;;;2.60;;
41059;SDS011;26811;53.160;8.202;2022-07-11T06:33:47;4.38;;;3.17;;
41059;SDS011;26811;53.160;8.202;2022-07-11T06:38:54;7.82;;;2.60;;
41059;SDS011;26811;53.160;8.202;2022-07-11T06:43:54;5.28;;;2.47;;
41059;SDS011;26811;53.160;8.202;2022-07-11T06:48:55;4.78;;;1.70;;
41059;SDS011;26811;53.160;8.202;2022-07-11T06:53:55;5.03;;;1.80;;
41059;SDS011;26811;53.160;8.202;2022-07-11T06:58:56;3.88;;;1.50;;
41059;SDS011;26811;53.160;8.202;2022-07-11T07:03:56;3.78;;;1.40;;
41059;SDS011;26811;53.160;8.202;2022-07-11T07:08:57;2.42;;;1.60;;
41059;SDS011;26811;53.160;8.202;2022-07-11T07:13:57;3.17;;;1.55;;
41059;SDS011;26811;53.160;8.202;2022-07-11T07:18:58;1.58;;;1.00;;
41059;SDS011;26811;53.160;8.202;2022-07-11T07:23:58;2.35;;;1.00;;
41059;SDS011;26811;53.160;8.202;2022-07-11T07:28:59;2.88;;;1.25;;
41059;SDS011;26811;53.160;8.202;2022-07-11T07:33:59;1.85;;;1.13;;
41059;SDS011;26811;53.160;8.202;2022-07-11T07:39:00;1.92;;;1.20;;
41059;SDS011;26811;53.160;8.202;2022-07-11T07:44:00;1.35;;;1.20;;
41059;SDS011;26811;53.160;8.202;2022-07-11T07:49:02;1.55;;;1.20;;
41059;SDS011;26811;53.160;8.202;2022-07-11T07:54:03;3.30;;;1.42;;
41059;SDS011;26811;53.160;8.202;2022-07-11T07:59:03;2.20;;;1.33;;
41059;SDS011;26811;53.160;8.202;2022-07-11T08:04:04;3.28;;;1.50;;
41059;SDS011;26811;53.160;8.202;2022-07-11T08:09:06;1.65;;;1.25;;
41059;SDS011;26811;53.160;8.202;2022-07-11T08:14:07;3.08;;;1.60;;
41059;SDS011;26811;53.160;8.202;2022-07-11T08:19:07;2.38;;;1.50;;
41059;SDS011;26811;53.160;8.202;2022-07-11T08:24:09;3.17;;;1.03;;
41059;SDS011;26811;53.160;8.202;2022-07-11T08:29:10;2.72;;;1.10;;
41059;SDS011;26811;53.160;8.202;2022-07-11T08:34:10;1.27;;;0.82;;
41059;SDS011;26811;53.160;8.202;2022-07-11T08:39:11;1.38;;;0.82;;
41059;SDS011;26811;53.160;8.202;2022-07-11T08:44:12;2.70;;;0.90;;
41059;SDS011;26811;53.160;8.202;2022-07-11T08:49:13;3.28;;;1.15;;
41059;SDS011;26811;53.160;8.202;2022-07-11T08:54:13;2.83;;;0.77;;
41059;SDS011;26811;53.160;8.202;2022-07-11T08:59:17;1.15;;;0.55;;
41059;SDS011;26811;53.160;8.202;2022-07-11T09:04:19;1.05;;;0.70;;
41059;SDS011;26811;53.160;8.202;2022-07-11T09:09:19;1.45;;;0.70;;
41059;SDS011;26811;53.160;8.202;2022-07-11T09:14:30;1.20;;;0.70;;
41059;SDS011;26811;53.160;8.202;2022-07-11T09:19:32;1.48;;;0.60;;
41059;SDS011;26811;53.160;8.202;2022-07-11T09:24:36;0.50;;;0.47;;
41059;SDS011;26811;53.160;8.202;2022-07-11T09:35:18;3.22;;;0.98;;
41059;SDS011;26811;53.160;8.202;2022-07-11T09:40:18;1.38;;;0.77;;
41059;SDS011;26811;53.160;8.202;2022-07-11T09:45:23;4.97;;;0.93;;
41059;SDS011;26811;53.160;8.202;2022-07-11T09:50:26;2.38;;;0.90;;
41059;SDS011;26811;53.160;8.202;2022-07-11T09:55:31;2.05;;;0.82;;
41059;SDS011;26811;53.160;8.202;2022-07-11T10:05:35;1.15;;;0.90;;
41059;SDS011;26811;53.160;8.202;2022-07-11T10:10:36;1.08;;;0.70;;
41059;SDS011;26811;53.160;8.202;2022-07-11T10:15:36;1.02;;;0.60;;
41059;SDS011;26811;53.160;8.202;2022-07-11T10:20:58;1.75;;;0.52;;
41059;SDS011;26811;53.160;8.202;2022-07-11T10:27:00;1.55;;;0.82;;
41059;SDS011;26811;53.160;8.202;2022-07-11T10:31:35;1.98;;;0.65;;
41059;SDS011;26811;53.160;8.202;2022-07-11T10:36:42;2.33;;;0.80;;
41059;SDS011;26811;53.160;8.202;2022-07-11T10:41:44;2.58;;;1.20;;
41059;SDS011;26811;53.160;8.202;2022-07-11T10:46:45;1.77;;;0.80;;
41059;SDS011;26811;53.160;8.202;2022-07-11T10:56:50;2.22;;;1.10;;
41059;SDS011;26811;53.160;8.202;2022-07-11T11:02:08;2.78;;;0.90;;
41059;SDS011;26811;53.160;8.202;2022-07-11T11:07:32;0.87;;;0.70;;
41059;SDS011;26811;53.160;8.202;2022-07-11T11:23:42;1.27;;;0.75;;
41059;SDS011;26811;53.160;8.202;2022-07-11T11:28:54;1.52;;;0.98;;
41059;SDS011;26811;53.160;8.202;2022-07-11T11:34:02;0.93;;;0.70;;
41059;SDS011;26811;53.160;8.202;2022-07-11T11:39:04;0.80;;;0.70;;
41059;SDS011;26811;53.160;8.202;2022-07-11T11:44:05;0.97;;;0.90;;
41059;SDS011;26811;53.160;8.202;2022-07-11T11:49:06;1.10;;;0.77;;
41059;SDS011;26811;53.160;8.202;2022-07-11T11:54:07;0.93;;;0.90;;
41059;SDS011;26811;53.160;8.202;2022-07-11T11:59:08;2.63;;;1.02;;
41059;SDS011;26811;53.160;8.202;2022-07-11T12:04:13;2.97;;;1.05;;
41059;SDS011;26811;53.160;8.202;2022-07-11T12:09:19;1.52;;;1.10;;
41059;SDS011;26811;53.160;8.202;2022-07-11T12:14:40;1.23;;;0.80;;
41059;SDS011;26811;53.160;8.202;2022-07-11T12:19:41;0.77;;;0.68;;
41059;SDS011;26811;53.160;8.202;2022-07-11T12:24:50;1.15;;;0.70;;
41059;SDS011;26811;53.160;8.202;2022-07-11T12:29:52;0.90;;;0.47;;
41059;SDS011;26811;53.160;8.202;2022-07-11T12:34:53;2.30;;;0.88;;
41059;SDS011;26811;53.160;8.202;2022-07-11T12:39:54;1.25;;;0.70;;
41059;SDS011;26811;53.160;8.202;2022-07-11T12:45:04;0.70;;;0.60;;
41059;SDS011;26811;53.160;8.202;2022-07-11T12:55:32;1.75;;;0.70;;
41059;SDS011;26811;53.160;8.202;2022-07-11T13:00:35;1.60;;;0.90;;
41059;SDS011;26811;53.160;8.202;2022-07-11T13:05:47;2.45;;;0.90;;
41059;SDS011;26811;53.160;8.202;2022-07-11T13:10:49;3.15;;;1.23;;
41059;SDS011;26811;53.160;8.202;2022-07-11T13:15:53;1.65;;;0.70;;
41059;SDS011;26811;53.160;8.202;2022-07-11T13:20:56;1.05;;;0.95;;
41059;SDS011;26811;53.160;8.202;2022-07-11T13:25:57;2.13;;;0.90;;
41059;SDS011;26811;53.160;8.202;2022-07-11T13:30:58;3.30;;;0.90;;
41059;SDS011;26811;53.160;8.202;2022-07-11T13:35:59;2.15;;;0.90;;
41059;SDS011;26811;53.160;8.202;2022-07-11T13:40:59;1.88;;;0.98;;
41059;SDS011;26811;53.160;8.202;2022-07-11T13:46:00;2.15;;;0.88;;
41059;SDS011;26811;53.160;8.202;2022-07-11T13:51:00;2.10;;;0.70;;
41059;SDS011;26811;53.160;8.202;2022-07-11T13:56:01;1.15;;;0.90;;
41059;SDS011;26811;53.160;8.202;2022-07-11T14:01:01;2.17;;;1.00;;
41059;SDS011;26811;53.160;8.202;2022-07-11T14:06:02;2.75;;;1.10;;
41059;SDS011;26811;53.160;8.202;2022-07-11T14:11:02;9.48;;;1.15;;
41059;SDS011;26811;53.160;8.202;2022-07-11T14:16:03;2.97;;;1.17;;
41059;SDS011;26811;53.160;8.202;2022-07-11T14:21:06;1.13;;;1.02;;
41059;SDS011;26811;53.160;8.202;2022-07-11T14:26:07;3.35;;;1.10;;
41059;SDS011;26811;53.160;8.202;2022-07-11T14:31:07;1.00;;;0.90;;
41059;SDS011;26811;53.160;8.202;2022-07-11T14:36:08;1.35;;;1.00;;
41059;SDS011;26811;53.160;8.202;2022-07-11T14:41:09;1.45;;;0.93;;
41059;SDS011;26811;53.160;8.202;2022-07-11T14:46:09;2.90;;;0.95;;
41059;SDS011;26811;53.160;8.202;2022-07-11T14:51:10;1.55;;;1.00;;
41059;SDS011;26811;53.160;8.202;2022-07-11T14:56:11;1.02;;;0.95;;
41059;SDS011;26811;53.160;8.202;2022-07-11T15:01:11;3.15;;;1.25;;
41059;SDS011;26811;53.160;8.202;2022-07-11T15:06:12;1.23;;;1.08;;
41059;SDS011;26811;53.160;8.202;2022-07-11T15:11:15;3.10;;;1.48;;
41059;SDS011;26811;53.160;8.202;2022-07-11T15:16:34;3.55;;;1.38;;
41059;SDS011;26811;53.160;8.202;2022-07-11T15:21:35;1.50;;;0.90;;
41059;SDS011;26811;53.160;8.202;2022-07-11T15:26:35;1.85;;;0.90;;
41059;SDS011;26811;53.160;8.202;2022-07-11T15:31:36;4.15;;;1.30;;
41059;SDS011;26811;53.160;8.202;2022-07-11T15:36:37;6.88;;;1.45;;
41059;SDS011;26811;53.160;8.202;2022-07-11T15:41:37;1.33;;;0.90;;
41059;SDS011;26811;53.160;8.202;2022-07-11T15:46:38;1.08;;;0.90;;
41059;SDS011;26811;53.160;8.202;2022-07-11T15:51:39;3.05;;;1.13;;
41059;SDS011;26811;53.160;8.202;2022-07-11T15:56:39;3.00;;;1.00;;
41059;SDS011;26811;53.160;8.202;2022-07-11T16:01:40;3.92;;;1.10;;
41059;SDS011;26811;53.160;8.202;2022-07-11T16:06:41;2.65;;;1.05;;
41059;SDS011;26811;53.160;8.202;2022-07-11T16:11:42;2.30;;;1.00;;
41059;SDS011;26811;53.160;8.202;2022-07-11T16:16:42;1.60;;;1.00;;
41059;SDS011;26811;53.160;8.202;2022-07-11T16:21:43;3.13;;;1.42;;
41059;SDS011;26811;53.160;8.202;2022-07-11T16:26:44;2.50;;;1.08;;
41059;SDS011;26811;53.160;8.202;2022-07-11T16:31:44;3.65;;;1.20;;
41059;SDS011;26811;53.160;8.202;2022-07-11T16:36:45;3.20;;;1.30;;
41059;SDS011;26811;53.160;8.202;2022-07-11T16:41:45;2.20;;;1.33;;
41059;SDS011;26811;53.160;8.202;2022-07-11T16:47:05;2.78;;;1.33;;
41059;SDS011;26811;53.160;8.202;2022-07-11T16:52:05;1.50;;;1.30;;
41059;SDS011;26811;53.160;8.202;2022-07-11T16:57:06;2.30;;;1.30;;
41059;SDS011;26811;53.160;8.202;2022-07-11T17:02:07;2.22;;;1.10;;
41059;SDS011;26811;53.160;8.202;2022-07-11T17:07:08;2.53;;;1.40;;
41059;SDS011;26811;53.160;8.202;2022-07-11T17:12:09;5.50;;;1.17;;
41059;SDS011;26811;53.160;8.202;2022-07-11T17:17:09;1.65;;;1.30;;
41059;SDS011;26811;53.160;8.202;2022-07-11T17:22:10;1.63;;;1.35;;
41059;SDS011;26811;53.160;8.202;2022-07-11T17:27:10;3.65;;;1.50;;
41059;SDS011;26811;53.160;8.202;2022-07-11T17:32:11;4.38;;;1.60;;
41059;SDS011;26811;53.160;8.202;2022-07-11T17:37:11;6.97;;;1.63;;
41059;SDS011;26811;53.160;8.202;2022-07-11T17:42:12;4.72;;;1.70;;
41059;SDS011;26811;53.160;8.202;2022-07-11T17:47:13;1.52;;;1.30;;
41059;SDS011;26811;53.160;8.202;2022-07-11T17:52:14;7.38;;;1.45;;
41059;SDS011;26811;53.160;8.202;2022-07-11T17:57:14;2.50;;;1.42;;
41059;SDS011;26811;53.160;8.202;2022-07-11T18:02:15;1.80;;;1.20;;
41059;SDS011;26811;53.160;8.202;2022-07-11T18:07:15;1.98;;;1.27;;
41059;SDS011;26811;53.160;8.202;2022-07-11T18:12:16;1.38;;;1.15;;
41059;SDS011;26811;53.160;8.202;2022-07-11T18:17:18;1.40;;;1.30;;
41059;SDS011;26811;53.160;8.202;2022-07-11T18:22:19;1.67;;;1.00;;
41059;SDS011;26811;53.160;8.202;2022-07-11T18:27:20;8.52;;;1.45;;
41059;SDS011;26811;53.160;8.202;2022-07-11T18:32:21;2.03;;;1.65;;
41059;SDS011;26811;53.160;8.202;2022-07-11T18:37:21;3.65;;;1.98;;
41059;SDS011;26811;53.160;8.202;2022-07-11T18:42:22;1.58;;;1.48;;
41059;SDS011;26811;53.160;8.202;2022-07-11T18:47:23;1.83;;;1.20;;
41059;SDS011;26811;53.160;8.202;2022-07-11T18:52:24;1.97;;;1.57;;
41059;SDS011;26811;53.160;8.202;2022-07-11T18:57:25;3.53;;;1.50;;
41059;SDS011;26811;53.160;8.202;2022-07-11T19:02:25;3.22;;;1.70;;
41059;SDS011;26811;53.160;8.202;2022-07-11T19:07:27;3.22;;;2.10;;
41059;SDS011;26811;53.160;8.202;2022-07-11T19:12:28;2.40;;;2.08;;
41059;SDS011;26811;53.160;8.202;2022-07-11T19:17:28;2.35;;;1.90;;
41059;SDS011;26811;53.160;8.202;2022-07-11T19:22:31;6.55;;;2.50;;
41059;SDS011;26811;53.160;8.202;2022-07-11T19:27:31;4.28;;;1.80;;
41059;SDS011;26811;53.160;8.202;2022-07-11T19:32:34;3.35;;;1.92;;
41059;SDS011;26811;53.160;8.202;2022-07-11T19:37:38;3.28;;;1.95;;
41059;SDS011;26811;53.160;8.202;2022-07-11T19:42:38;5.55;;;2.15;;
41059;SDS011;26811;53.160;8.202;2022-07-11T19:47:40;2.80;;;2.03;;
41059;SDS011;26811;53.160;8.202;2022-07-11T19:52:41;4.18;;;2.22;;
41059;SDS011;26811;53.160;8.202;2022-07-11T19:57:42;2.13;;;1.77;;
41059;SDS011;26811;53.160;8.202;2022-07-11T20:02:43;4.57;;;1.70;;
41059;SDS011;26811;53.160;8.202;2022-07-11T20:07:45;2.20;;;1.80;;
41059;SDS011;26811;53.160;8.202;2022-07-11T20:12:46;1.70;;;1.60;;
41059;SDS011;26811;53.160;8.202;2022-07-11T20:17:46;2.60;;;1.60;;
41059;SDS011;26811;53.160;8.202;2022-07-11T20:22:48;4.03;;;1.80;;
41059;SDS011;26811;53.160;8.202;2022-07-11T20:27:48;3.05;;;2.10;;
41059;SDS011;26811;53.160;8.202;2022-07-11T20:32:49;6.45;;;2.10;;
41059;SDS011;26811;53.160;8.202;2022-07-11T20:37:49;3.97;;;2.10;;
41059;SDS011;26811;53.160;8.202;2022-07-11T20:42:50;5.95;;;2.55;;
41059;SDS011;26811;53.160;8.202;2022-07-11T20:47:51;3.08;;;1.92;;
41059;SDS011;26811;53.160;8.202;2022-07-11T20:52:51;2.08;;;1.90;;
41059;SDS011;26811;53.160;8.202;2022-07-11T20:57:58;5.72;;;2.20;;
41059;SDS011;26811;53.160;8.202;2022-07-11T21:02:59;2.30;;;2.10;;
41059;SDS011;26811;53.160;8.202;2022-07-11T21:08:00;3.88;;;2.33;;
41059;SDS011;26811;53.160;8.202;2022-07-11T21:13:01;5.53;;;2.10;;
41059;SDS011;26811;53.160;8.202;2022-07-11T21:18:02;2.53;;;2.30;;
41059;SDS011;26811;53.160;8.202;2022-07-11T21:23:02;4.95;;;2.50;;
41059;SDS011;26811;53.160;8.202;2022-07-11T21:28:03;5.50;;;2.40;;
41059;SDS011;26811;53.160;8.202;2022-07-11T21:33:04;9.18;;;2.78;;
41059;SDS011;26811;53.160;8.202;2022-07-11T21:38:06;4.80;;;2.60;;
41059;SDS011;26811;53.160;8.202;2022-07-11T21:43:07;8.80;;;2.70;;
41059;SDS011;26811;53.160;8.202;2022-07-11T21:48:08;7.72;;;2.92;;
41059;SDS011;26811;53.160;8.202;2022-07-11T21:53:09;6.45;;;2.70;;
41059;SDS011;26811;53.160;8.202;2022-07-11T21:58:10;5.32;;;2.83;;
41059;SDS011;26811;53.160;8.202;2022-07-11T22:03:10;5.05;;;2.33;;
41059;SDS011;26811;53.160;8.202;2022-07-11T22:08:11;6.45;;;2.90;;
41059;SDS011;26811;53.160;8.202;2022-07-11T22:13:12;6.03;;;2.58;;
41059;SDS011;26811;53.160;8.202;2022-07-11T22:18:12;4.38;;;2.50;;
41059;SDS011;26811;53.160;8.202;2022-07-11T22:23:13;4.20;;;2.40;;
41059;SDS011;26811;53.160;8.202;2022-07-11T22:28:13;2.88;;;2.58;;
41059;SDS011;26811;53.160;8.202;2022-07-11T22:33:14;4.43;;;2.65;;
41059;SDS011;26811;53.160;8.202;2022-07-11T22:38:14;5.28;;;2.90;;
41059;SDS011;26811;53.160;8.202;2022-07-11T22:43:15;5.10;;;2.47;;
41059;SDS011;26811;53.160;8.202;2022-07-11T22:48:19;3.53;;;2.63;;
41059;SDS011;26811;53.160;8.202;2022-07-11T22:53:20;3.00;;;2.28;;
41059;SDS011;26811;53.160;8.202;2022-07-11T22:58:21;4.03;;;2.47;;
41059;SDS011;26811;53.160;8.202;2022-07-11T23:03:21;2.40;;;2.20;;
41059;SDS011;26811;53.160;8.202;2022-07-11T23:08:22;2.20;;;2.00;;
41059;SDS011;26811;53.160;8.202;2022-07-11T23:13:22;2.22;;;1.83;;
41059;SDS011;26811;53.160;8.202;2022-07-11T23:18:23;2.10;;;1.98;;
41059;SDS011;26811;53.160;8.202;2022-07-11T23:23:23;2.67;;;2.17;;
41059;SDS011;26811;53.160;8.202;2022-07-11T23:28:24;3.25;;;2.20;;
41059;SDS011;26811;53.160;8.202;2022-07-11T23:33:24;2.40;;;2.20;;
41059;SDS011;26811;53.160;8.202;2022-07-11T23:38:25;4.35;;;2.03;;
41059;SDS011;26811;53.160;8.202;2022-07-11T23:43:25;4.55;;;2.20;;
41059;SDS011;26811;53.160;8.202;2022-07-11T23:48:26;2.58;;;2.00;;
41059;SDS011;26811;53.160;8.202;2022-07-11T23:53:26;2.95;;;2.08;;
41059;SDS011;26811;53.160;8.202;2022-07-11T23:58:27;2.72;;;2.00;;
